sensor_id;sensor_type;location;lat;lon;timestamp;temperature;humidity
19258;DHT22;9763;48.780;9.212;2023-05-21T00:02:53;20.40;55.20
19258;DHT22;9763;48.780;9.212;2023-05-21T00:06:19;20.40;55.40
19258;DHT22;9763;48.780;9.212;2023-05-21T00:09:46;20.40;55.30
19258;DHT22;9763;48.780;9.212;2023-05-21T00:13:10;20.30;55.30
19258;DHT22;9763;48.780;9.212;2023-05-21T00:16:35;20.30;55.60
19258;DHT22;9763;48.780;9.212;2023-05-21T00:20:01;20.30;55.50
19258;DHT22;9763;48.780;9.212;2023-05-21T00:23:27;20.30;55.70
19258;DHT22;9763;48.780;9.212;2023-05-21T00:26:53;20.20;55.60
19258;DHT22;9763;48.780;9.212;2023-05-21T00:30:18;20.20;55.70
19258;DHT22;9763;48.780;9.212;2023-05-21T00:33:42;20.20;55.80
19258;DHT22;9763;48.780;9.212;2023-05-21T00:37:07;20.20;55.90
19258;DHT22;9763;48.780;9.212;2023-05-21T00:40:31;20.30;56.10
19258;DHT22;9763;48.780;9.212;2023-05-21T00:43:56;20.20;56.10
19258;DHT22;9763;48.780;9.212;2023-05-21T00:47:21;20.20;56.00
19258;DHT22;9763;48.780;9.212;2023-05-21T00:50:45;20.20;56.10
19258;DHT22;9763;48.780;9.212;2023-05-21T00:54:11;20.10;56.10
19258;DHT22;9763;48.780;9.212;2023-05-21T00:57:35;20.10;56.30
19258;DHT22;9763;48.780;9.212;2023-05-21T01:00:59;20.10;56.30
19258;DHT22;9763;48.780;9.212;2023-05-21T01:04:25;20.10;56.40
19258;DHT22;9763;48.780;9.212;2023-05-21T01:07:48;20.10;56.40
19258;DHT22;9763;48.780;9.212;2023-05-21T01:11:14;20.20;56.60
19258;DHT22;9763;48.780;9.212;2023-05-21T01:14:37;20.10;56.60
19258;DHT22;9763;48.780;9.212;2023-05-21T01:18:03;20.10;56.60
19258;DHT22;9763;48.780;9.212;2023-05-21T01:21:28;20.00;56.60
19258;DHT22;9763;48.780;9.212;2023-05-21T01:24:54;20.00;56.70
19258;DHT22;9763;48.780;9.212;2023-05-21T01:28:17;20.10;56.80
19258;DHT22;9763;48.780;9.212;2023-05-21T01:31:50;20.00;57.40
19258;DHT22;9763;48.780;9.212;2023-05-21T01:35:21;20.00;57.10
19258;DHT22;9763;48.780;9.212;2023-05-21T01:38:56;20.00;57.70
19258;DHT22;9763;48.780;9.212;2023-05-21T01:42:25;19.80;57.20
19258;DHT22;9763;48.780;9.212;2023-05-21T01:45:54;19.80;57.20
19258;DHT22;9763;48.780;9.212;2023-05-21T01:49:19;19.80;57.30
19258;DHT22;9763;48.780;9.212;2023-05-21T01:52:48;19.70;57.90
19258;DHT22;9763;48.780;9.212;2023-05-21T01:56:12;19.70;57.50
19258;DHT22;9763;48.780;9.212;2023-05-21T01:59:38;19.60;57.20
19258;DHT22;9763;48.780;9.212;2023-05-21T02:03:02;19.60;57.30
19258;DHT22;9763;48.780;9.212;2023-05-21T02:06:26;19.60;57.40
19258;DHT22;9763;48.780;9.212;2023-05-21T02:09:50;19.80;57.50
19258;DHT22;9763;48.780;9.212;2023-05-21T02:13:13;19.60;57.30
19258;DHT22;9763;48.780;9.212;2023-05-21T02:16:45;19.60;57.50
19258;DHT22;9763;48.780;9.212;2023-05-21T02:20:09;19.50;57.50
19258;DHT22;9763;48.780;9.212;2023-05-21T02:23:34;19.50;57.60
19258;DHT22;9763;48.780;9.212;2023-05-21T02:26:58;19.40;58.10
19258;DHT22;9763;48.780;9.212;2023-05-21T02:30:22;19.40;57.70
19258;DHT22;9763;48.780;9.212;2023-05-21T02:33:46;19.30;57.80
19258;DHT22;9763;48.780;9.212;2023-05-21T02:37:10;19.30;57.80
19258;DHT22;9763;48.780;9.212;2023-05-21T02:40:34;19.20;57.80
19258;DHT22;9763;48.780;9.212;2023-05-21T02:43:57;19.20;58.00
19258;DHT22;9763;48.780;9.212;2023-05-21T02:47:21;19.20;58.00
19258;DHT22;9763;48.780;9.212;2023-05-21T02:50:49;19.20;58.10
19258;DHT22;9763;48.780;9.212;2023-05-21T02:54:14;19.20;58.30
19258;DHT22;9763;48.780;9.212;2023-05-21T02:57:38;19.10;58.10
19258;DHT22;9763;48.780;9.212;2023-05-21T03:01:02;19.10;58.10
19258;DHT22;9763;48.780;9.212;2023-05-21T03:04:25;19.10;58.20
19258;DHT22;9763;48.780;9.212;2023-05-21T03:07:51;19.10;58.30
19258;DHT22;9763;48.780;9.212;2023-05-21T03:11:15;19.10;58.30
19258;DHT22;9763;48.780;9.212;2023-05-21T03:14:40;19.10;58.30
19258;DHT22;9763;48.780;9.212;2023-05-21T03:18:05;19.00;58.30
19258;DHT22;9763;48.780;9.212;2023-05-21T03:21:28;19.00;58.30
19258;DHT22;9763;48.780;9.212;2023-05-21T03:24:54;18.90;58.20
19258;DHT22;9763;48.780;9.212;2023-05-21T03:28:19;18.90;58.40
19258;DHT22;9763;48.780;9.212;2023-05-21T03:31:44;18.90;58.40
19258;DHT22;9763;48.780;9.212;2023-05-21T03:35:08;18.90;58.40
19258;DHT22;9763;48.780;9.212;2023-05-21T03:38:32;18.90;58.50
19258;DHT22;9763;48.780;9.212;2023-05-21T03:42:00;18.90;58.60
19258;DHT22;9763;48.780;9.212;2023-05-21T03:45:36;18.80;58.80
19258;DHT22;9763;48.780;9.212;2023-05-21T03:49:25;18.80;58.70
19258;DHT22;9763;48.780;9.212;2023-05-21T03:52:50;18.70;58.70
19258;DHT22;9763;48.780;9.212;2023-05-21T03:56:14;18.70;58.70
19258;DHT22;9763;48.780;9.212;2023-05-21T03:59:39;18.70;58.80
19258;DHT22;9763;48.780;9.212;2023-05-21T04:03:03;18.70;59.00
19258;DHT22;9763;48.780;9.212;2023-05-21T04:06:28;18.70;58.90
19258;DHT22;9763;48.780;9.212;2023-05-21T04:09:52;18.70;59.00
19258;DHT22;9763;48.780;9.212;2023-05-21T04:13:16;18.60;59.10
19258;DHT22;9763;48.780;9.212;2023-05-21T04:16:40;18.60;59.30
19258;DHT22;9763;48.780;9.212;2023-05-21T04:20:06;18.60;59.50
19258;DHT22;9763;48.780;9.212;2023-05-21T04:23:32;18.50;59.60
19258;DHT22;9763;48.780;9.212;2023-05-21T04:27:02;18.50;59.60
19258;DHT22;9763;48.780;9.212;2023-05-21T04:30:26;18.50;59.70
19258;DHT22;9763;48.780;9.212;2023-05-21T04:33:51;18.60;59.70
19258;DHT22;9763;48.780;9.212;2023-05-21T04:37:15;18.60;59.80
19258;DHT22;9763;48.780;9.212;2023-05-21T04:40:39;18.60;59.80
19258;DHT22;9763;48.780;9.212;2023-05-21T04:44:03;18.60;59.70
19258;DHT22;9763;48.780;9.212;2023-05-21T04:47:29;18.70;60.00
19258;DHT22;9763;48.780;9.212;2023-05-21T04:50:58;18.70;60.00
19258;DHT22;9763;48.780;9.212;2023-05-21T04:54:22;18.80;60.20
19258;DHT22;9763;48.780;9.212;2023-05-21T04:57:45;18.80;60.20
19258;DHT22;9763;48.780;9.212;2023-05-21T05:01:09;18.80;60.40
19258;DHT22;9763;48.780;9.212;2023-05-21T05:04:34;18.80;60.50
19258;DHT22;9763;48.780;9.212;2023-05-21T05:07:58;18.80;60.40
19258;DHT22;9763;48.780;9.212;2023-05-21T05:11:23;18.90;60.60
19258;DHT22;9763;48.780;9.212;2023-05-21T05:14:47;18.90;60.60
19258;DHT22;9763;48.780;9.212;2023-05-21T05:18:10;18.90;60.70
19258;DHT22;9763;48.780;9.212;2023-05-21T05:21:35;19.00;60.70
19258;DHT22;9763;48.780;9.212;2023-05-21T05:25:00;19.00;61.10
19258;DHT22;9763;48.780;9.212;2023-05-21T05:28:23;19.00;60.90
19258;DHT22;9763;48.780;9.212;2023-05-21T05:31:48;19.00;60.90
19258;DHT22;9763;48.780;9.212;2023-05-21T05:35:12;19.10;61.10
19258;DHT22;9763;48.780;9.212;2023-05-21T05:38:35;19.10;61.20
19258;DHT22;9763;48.780;9.212;2023-05-21T05:42:00;19.20;61.50
19258;DHT22;9763;48.780;9.212;2023-05-21T05:45:24;19.30;61.80
19258;DHT22;9763;48.780;9.212;2023-05-21T05:48:48;19.40;62.00
19258;DHT22;9763;48.780;9.212;2023-05-21T05:52:12;19.50;62.40
19258;DHT22;9763;48.780;9.212;2023-05-21T05:55:35;19.70;62.80
19258;DHT22;9763;48.780;9.212;2023-05-21T05:59:01;19.90;62.90
19258;DHT22;9763;48.780;9.212;2023-05-21T06:02:27;20.20;63.10
19258;DHT22;9763;48.780;9.212;2023-05-21T06:05:51;20.40;63.00
19258;DHT22;9763;48.780;9.212;2023-05-21T06:09:16;20.60;62.90
19258;DHT22;9763;48.780;9.212;2023-05-21T06:12:40;20.90;62.60
19258;DHT22;9763;48.780;9.212;2023-05-21T06:16:05;21.10;62.10
19258;DHT22;9763;48.780;9.212;2023-05-21T06:19:31;21.20;61.90
19258;DHT22;9763;48.780;9.212;2023-05-21T06:22:55;21.30;61.70
19258;DHT22;9763;48.780;9.212;2023-05-21T06:26:20;21.40;61.90
19258;DHT22;9763;48.780;9.212;2023-05-21T06:29:45;21.60;62.50
19258;DHT22;9763;48.780;9.212;2023-05-21T06:33:10;22.00;63.40
19258;DHT22;9763;48.780;9.212;2023-05-21T06:36:34;22.20;64.00
19258;DHT22;9763;48.780;9.212;2023-05-21T06:39:58;22.60;65.10
19258;DHT22;9763;48.780;9.212;2023-05-21T06:43:22;23.20;65.20
19258;DHT22;9763;48.780;9.212;2023-05-21T06:47:04;23.60;64.10
19258;DHT22;9763;48.780;9.212;2023-05-21T06:50:29;24.00;62.90
19258;DHT22;9763;48.780;9.212;2023-05-21T06:53:54;24.20;62.30
19258;DHT22;9763;48.780;9.212;2023-05-21T06:57:18;24.50;62.10
19258;DHT22;9763;48.780;9.212;2023-05-21T07:00:42;24.80;62.40
19258;DHT22;9763;48.780;9.212;2023-05-21T07:04:06;25.10;62.10
19258;DHT22;9763;48.780;9.212;2023-05-21T07:07:31;25.30;61.40
19258;DHT22;9763;48.780;9.212;2023-05-21T07:10:56;25.70;60.70
19258;DHT22;9763;48.780;9.212;2023-05-21T07:14:20;25.90;60.50
19258;DHT22;9763;48.780;9.212;2023-05-21T07:17:45;26.20;60.40
19258;DHT22;9763;48.780;9.212;2023-05-21T07:21:09;26.50;60.20
19258;DHT22;9763;48.780;9.212;2023-05-21T07:24:34;26.80;59.80
19258;DHT22;9763;48.780;9.212;2023-05-21T07:27:58;27.10;59.30
19258;DHT22;9763;48.780;9.212;2023-05-21T07:31:22;27.30;59.10
19258;DHT22;9763;48.780;9.212;2023-05-21T07:34:47;27.60;58.80
19258;DHT22;9763;48.780;9.212;2023-05-21T07:38:11;27.90;58.40
19258;DHT22;9763;48.780;9.212;2023-05-21T07:41:36;28.10;58.20
19258;DHT22;9763;48.780;9.212;2023-05-21T07:45:02;28.30;57.80
19258;DHT22;9763;48.780;9.212;2023-05-21T07:48:31;28.60;57.80
19258;DHT22;9763;48.780;9.212;2023-05-21T07:51:57;28.90;57.70
19258;DHT22;9763;48.780;9.212;2023-05-21T07:55:21;29.50;57.70
19258;DHT22;9763;48.780;9.212;2023-05-21T07:58:47;29.70;57.70
19258;DHT22;9763;48.780;9.212;2023-05-21T08:02:12;30.20;57.90
19258;DHT22;9763;48.780;9.212;2023-05-21T08:05:35;30.70;57.90
19258;DHT22;9763;48.780;9.212;2023-05-21T08:09:00;31.30;57.70
19258;DHT22;9763;48.780;9.212;2023-05-21T08:12:24;31.90;57.30
19258;DHT22;9763;48.780;9.212;2023-05-21T08:15:49;32.60;56.60
19258;DHT22;9763;48.780;9.212;2023-05-21T08:19:16;33.20;55.70
19258;DHT22;9763;48.780;9.212;2023-05-21T08:22:39;33.70;54.40
19258;DHT22;9763;48.780;9.212;2023-05-21T08:26:04;34.20;53.20
19258;DHT22;9763;48.780;9.212;2023-05-21T08:29:31;34.50;51.80
19258;DHT22;9763;48.780;9.212;2023-05-21T08:32:56;34.70;50.40
19258;DHT22;9763;48.780;9.212;2023-05-21T08:36:22;34.80;49.20
19258;DHT22;9763;48.780;9.212;2023-05-21T08:39:50;34.80;49.00
19258;DHT22;9763;48.780;9.212;2023-05-21T08:43:15;34.90;48.60
19258;DHT22;9763;48.780;9.212;2023-05-21T08:46:44;34.90;48.10
19258;DHT22;9763;48.780;9.212;2023-05-21T08:50:15;34.90;46.90
19258;DHT22;9763;48.780;9.212;2023-05-21T08:53:42;34.90;46.80
19258;DHT22;9763;48.780;9.212;2023-05-21T08:57:09;34.90;46.70
19258;DHT22;9763;48.780;9.212;2023-05-21T09:00:33;35.00;46.20
19258;DHT22;9763;48.780;9.212;2023-05-21T09:03:58;34.90;44.40
19258;DHT22;9763;48.780;9.212;2023-05-21T09:07:47;34.80;44.50
19258;DHT22;9763;48.780;9.212;2023-05-21T09:11:26;34.60;44.20
19258;DHT22;9763;48.780;9.212;2023-05-21T09:14:52;34.40;43.90
19258;DHT22;9763;48.780;9.212;2023-05-21T09:18:23;34.10;43.70
19258;DHT22;9763;48.780;9.212;2023-05-21T09:22:08;33.90;43.20
19258;DHT22;9763;48.780;9.212;2023-05-21T09:25:37;33.50;42.90
19258;DHT22;9763;48.780;9.212;2023-05-21T09:29:07;33.20;42.70
19258;DHT22;9763;48.780;9.212;2023-05-21T09:32:30;32.90;42.70
19258;DHT22;9763;48.780;9.212;2023-05-21T09:35:54;32.60;42.80
19258;DHT22;9763;48.780;9.212;2023-05-21T09:39:27;32.30;43.00
19258;DHT22;9763;48.780;9.212;2023-05-21T09:42:56;32.20;42.80
19258;DHT22;9763;48.780;9.212;2023-05-21T09:46:20;32.00;43.40
19258;DHT22;9763;48.780;9.212;2023-05-21T09:49:48;32.00;44.20
19258;DHT22;9763;48.780;9.212;2023-05-21T09:53:12;32.10;44.60
19258;DHT22;9763;48.780;9.212;2023-05-21T09:56:36;32.30;44.70
19258;DHT22;9763;48.780;9.212;2023-05-21T10:00:01;32.40;44.40
19258;DHT22;9763;48.780;9.212;2023-05-21T10:03:38;32.60;44.00
19258;DHT22;9763;48.780;9.212;2023-05-21T10:07:04;32.70;43.60
19258;DHT22;9763;48.780;9.212;2023-05-21T10:10:30;32.80;43.80
19258;DHT22;9763;48.780;9.212;2023-05-21T10:13:59;33.00;44.30
19258;DHT22;9763;48.780;9.212;2023-05-21T10:17:29;33.20;44.20
19258;DHT22;9763;48.780;9.212;2023-05-21T10:20:55;33.50;44.00
19258;DHT22;9763;48.780;9.212;2023-05-21T10:24:23;33.70;43.40
19258;DHT22;9763;48.780;9.212;2023-05-21T10:27:49;33.80;42.80
19258;DHT22;9763;48.780;9.212;2023-05-21T10:31:17;33.90;42.80
19258;DHT22;9763;48.780;9.212;2023-05-21T10:34:47;34.00;42.00
19258;DHT22;9763;48.780;9.212;2023-05-21T10:38:18;33.90;41.10
19258;DHT22;9763;48.780;9.212;2023-05-21T10:41:45;33.70;40.80
19258;DHT22;9763;48.780;9.212;2023-05-21T10:45:25;33.50;40.40
19258;DHT22;9763;48.780;9.212;2023-05-21T10:49:12;33.20;40.50
19258;DHT22;9763;48.780;9.212;2023-05-21T10:53:01;33.00;40.70
19258;DHT22;9763;48.780;9.212;2023-05-21T10:56:37;32.80;40.30
19258;DHT22;9763;48.780;9.212;2023-05-21T11:00:05;32.50;40.80
19258;DHT22;9763;48.780;9.212;2023-05-21T11:03:32;32.40;41.00
19258;DHT22;9763;48.780;9.212;2023-05-21T11:06:59;32.30;41.20
19258;DHT22;9763;48.780;9.212;2023-05-21T11:10:31;32.20;41.20
19258;DHT22;9763;48.780;9.212;2023-05-21T11:13:59;32.10;41.20
19258;DHT22;9763;48.780;9.212;2023-05-21T11:17:36;32.10;41.30
19258;DHT22;9763;48.780;9.212;2023-05-21T11:21:03;32.00;41.00
19258;DHT22;9763;48.780;9.212;2023-05-21T11:24:31;31.90;41.20
19258;DHT22;9763;48.780;9.212;2023-05-21T11:28:04;31.80;41.30
19258;DHT22;9763;48.780;9.212;2023-05-21T11:31:31;31.70;41.20
19258;DHT22;9763;48.780;9.212;2023-05-21T11:35:00;31.40;41.30
19258;DHT22;9763;48.780;9.212;2023-05-21T11:38:27;31.70;41.40
19258;DHT22;9763;48.780;9.212;2023-05-21T11:41:53;31.60;41.00
19258;DHT22;9763;48.780;9.212;2023-05-21T11:45:27;31.40;40.90
19258;DHT22;9763;48.780;9.212;2023-05-21T11:48:54;31.30;41.00
19258;DHT22;9763;48.780;9.212;2023-05-21T11:52:19;31.10;41.10
19258;DHT22;9763;48.780;9.212;2023-05-21T11:55:42;31.00;41.30
19258;DHT22;9763;48.780;9.212;2023-05-21T11:59:14;31.00;41.30
19258;DHT22;9763;48.780;9.212;2023-05-21T12:02:45;30.90;41.30
19258;DHT22;9763;48.780;9.212;2023-05-21T12:06:10;30.90;41.40
19258;DHT22;9763;48.780;9.212;2023-05-21T12:09:38;30.80;41.30
19258;DHT22;9763;48.780;9.212;2023-05-21T12:13:02;30.80;41.20
19258;DHT22;9763;48.780;9.212;2023-05-21T12:16:26;30.70;41.40
19258;DHT22;9763;48.780;9.212;2023-05-21T12:19:53;30.70;41.60
19258;DHT22;9763;48.780;9.212;2023-05-21T12:23:18;30.70;41.60
19258;DHT22;9763;48.780;9.212;2023-05-21T12:26:43;30.70;41.50
19258;DHT22;9763;48.780;9.212;2023-05-21T12:30:08;30.70;41.40
19258;DHT22;9763;48.780;9.212;2023-05-21T12:33:33;30.70;41.40
19258;DHT22;9763;48.780;9.212;2023-05-21T12:36:58;30.70;41.40
19258;DHT22;9763;48.780;9.212;2023-05-21T12:40:33;30.70;41.50
19258;DHT22;9763;48.780;9.212;2023-05-21T12:44:00;30.70;41.30
19258;DHT22;9763;48.780;9.212;2023-05-21T12:47:24;30.70;40.90
19258;DHT22;9763;48.780;9.212;2023-05-21T12:50:50;30.60;40.60
19258;DHT22;9763;48.780;9.212;2023-05-21T12:54:15;30.60;40.20
19258;DHT22;9763;48.780;9.212;2023-05-21T12:57:39;30.50;40.20
19258;DHT22;9763;48.780;9.212;2023-05-21T13:01:05;30.50;40.10
19258;DHT22;9763;48.780;9.212;2023-05-21T13:04:30;30.40;40.00
19258;DHT22;9763;48.780;9.212;2023-05-21T13:07:53;30.40;40.10
19258;DHT22;9763;48.780;9.212;2023-05-21T13:11:18;30.30;40.10
19258;DHT22;9763;48.780;9.212;2023-05-21T13:14:42;30.30;40.10
19258;DHT22;9763;48.780;9.212;2023-05-21T13:18:06;30.30;40.20
19258;DHT22;9763;48.780;9.212;2023-05-21T13:21:29;30.30;40.30
19258;DHT22;9763;48.780;9.212;2023-05-21T13:24:53;30.20;40.20
19258;DHT22;9763;48.780;9.212;2023-05-21T13:28:18;30.20;40.10
19258;DHT22;9763;48.780;9.212;2023-05-21T13:31:42;30.10;40.00
19258;DHT22;9763;48.780;9.212;2023-05-21T13:35:07;30.10;40.20
19258;DHT22;9763;48.780;9.212;2023-05-21T13:38:33;30.10;40.30
19258;DHT22;9763;48.780;9.212;2023-05-21T13:41:56;30.10;40.40
19258;DHT22;9763;48.780;9.212;2023-05-21T13:45:21;30.10;40.20
19258;DHT22;9763;48.780;9.212;2023-05-21T13:48:50;30.10;40.00
19258;DHT22;9763;48.780;9.212;2023-05-21T13:52:13;30.20;40.30
19258;DHT22;9763;48.780;9.212;2023-05-21T13:55:38;30.20;40.30
19258;DHT22;9763;48.780;9.212;2023-05-21T13:59:01;30.30;40.40
19258;DHT22;9763;48.780;9.212;2023-05-21T14:02:26;30.30;40.40
19258;DHT22;9763;48.780;9.212;2023-05-21T14:05:50;30.40;40.20
19258;DHT22;9763;48.780;9.212;2023-05-21T14:09:14;30.50;40.20
19258;DHT22;9763;48.780;9.212;2023-05-21T14:12:38;30.60;40.20
19258;DHT22;9763;48.780;9.212;2023-05-21T14:16:03;30.70;40.10
19258;DHT22;9763;48.780;9.212;2023-05-21T14:19:28;30.70;40.10
19258;DHT22;9763;48.780;9.212;2023-05-21T14:22:52;30.70;39.90
19258;DHT22;9763;48.780;9.212;2023-05-21T14:26:17;30.70;39.90
19258;DHT22;9763;48.780;9.212;2023-05-21T14:29:41;30.70;39.90
19258;DHT22;9763;48.780;9.212;2023-05-21T14:33:05;30.70;39.90
19258;DHT22;9763;48.780;9.212;2023-05-21T14:36:30;30.80;39.60
19258;DHT22;9763;48.780;9.212;2023-05-21T14:39:54;30.70;39.30
19258;DHT22;9763;48.780;9.212;2023-05-21T14:43:17;30.70;39.20
19258;DHT22;9763;48.780;9.212;2023-05-21T14:46:41;30.60;38.90
19258;DHT22;9763;48.780;9.212;2023-05-21T14:50:05;30.50;38.80
19258;DHT22;9763;48.780;9.212;2023-05-21T14:53:31;30.40;38.80
19258;DHT22;9763;48.780;9.212;2023-05-21T14:56:54;30.30;38.60
19258;DHT22;9763;48.780;9.212;2023-05-21T15:00:18;30.20;38.30
19258;DHT22;9763;48.780;9.212;2023-05-21T15:03:42;30.10;38.00
19258;DHT22;9763;48.780;9.212;2023-05-21T15:07:05;29.90;37.90
19258;DHT22;9763;48.780;9.212;2023-05-21T15:10:30;29.80;37.90
19258;DHT22;9763;48.780;9.212;2023-05-21T15:13:54;29.60;38.00
19258;DHT22;9763;48.780;9.212;2023-05-21T15:17:18;29.50;38.10
19258;DHT22;9763;48.780;9.212;2023-05-21T15:20:41;29.50;38.00
19258;DHT22;9763;48.780;9.212;2023-05-21T15:24:05;29.30;37.80
19258;DHT22;9763;48.780;9.212;2023-05-21T15:27:30;29.20;37.80
19258;DHT22;9763;48.780;9.212;2023-05-21T15:30:54;29.10;37.80
19258;DHT22;9763;48.780;9.212;2023-05-21T15:34:18;29.00;37.80
19258;DHT22;9763;48.780;9.212;2023-05-21T15:37:41;29.00;38.00
19258;DHT22;9763;48.780;9.212;2023-05-21T15:41:06;28.90;38.00
19258;DHT22;9763;48.780;9.212;2023-05-21T15:44:31;28.90;38.10
19258;DHT22;9763;48.780;9.212;2023-05-21T15:47:55;28.90;38.00
19258;DHT22;9763;48.780;9.212;2023-05-21T15:51:19;28.80;38.00
19258;DHT22;9763;48.780;9.212;2023-05-21T15:54:42;28.80;38.00
19258;DHT22;9763;48.780;9.212;2023-05-21T15:58:06;28.80;38.00
19258;DHT22;9763;48.780;9.212;2023-05-21T16:01:31;28.70;37.90
19258;DHT22;9763;48.780;9.212;2023-05-21T16:04:55;28.70;37.90
19258;DHT22;9763;48.780;9.212;2023-05-21T16:08:19;28.70;38.00
19258;DHT22;9763;48.780;9.212;2023-05-21T16:11:42;28.70;38.00
19258;DHT22;9763;48.780;9.212;2023-05-21T16:15:07;28.70;37.80
19258;DHT22;9763;48.780;9.212;2023-05-21T16:18:33;28.70;38.00
19258;DHT22;9763;48.780;9.212;2023-05-21T16:21:56;28.60;37.80
19258;DHT22;9763;48.780;9.212;2023-05-21T16:25:20;28.60;38.70
19258;DHT22;9763;48.780;9.212;2023-05-21T16:28:44;28.60;38.80
19258;DHT22;9763;48.780;9.212;2023-05-21T16:32:07;28.60;38.70
19258;DHT22;9763;48.780;9.212;2023-05-21T16:35:33;28.60;38.70
19258;DHT22;9763;48.780;9.212;2023-05-21T16:38:57;28.50;38.80
19258;DHT22;9763;48.780;9.212;2023-05-21T16:42:20;28.50;38.70
19258;DHT22;9763;48.780;9.212;2023-05-21T16:45:46;28.50;38.90
19258;DHT22;9763;48.780;9.212;2023-05-21T16:49:10;29.40;40.00
19258;DHT22;9763;48.780;9.212;2023-05-21T16:52:35;28.40;39.40
19258;DHT22;9763;48.780;9.212;2023-05-21T16:55:59;28.40;39.70
19258;DHT22;9763;48.780;9.212;2023-05-21T16:59:22;28.40;40.00
19258;DHT22;9763;48.780;9.212;2023-05-21T17:02:46;28.40;40.30
19258;DHT22;9763;48.780;9.212;2023-05-21T17:06:10;28.40;40.30
19258;DHT22;9763;48.780;9.212;2023-05-21T17:09:36;28.30;40.20
19258;DHT22;9763;48.780;9.212;2023-05-21T17:12:59;28.30;40.20
19258;DHT22;9763;48.780;9.212;2023-05-21T17:16:42;28.20;40.30
19258;DHT22;9763;48.780;9.212;2023-05-21T17:20:07;28.10;40.30
19258;DHT22;9763;48.780;9.212;2023-05-21T17:23:31;28.00;40.60
19258;DHT22;9763;48.780;9.212;2023-05-21T17:26:56;27.90;40.70
19258;DHT22;9763;48.780;9.212;2023-05-21T17:30:20;27.80;40.80
19258;DHT22;9763;48.780;9.212;2023-05-21T17:33:44;27.80;41.10
19258;DHT22;9763;48.780;9.212;2023-05-21T17:37:07;27.70;41.00
19258;DHT22;9763;48.780;9.212;2023-05-21T17:40:31;27.70;41.20
19258;DHT22;9763;48.780;9.212;2023-05-21T17:44:01;27.70;41.40
19258;DHT22;9763;48.780;9.212;2023-05-21T17:47:24;27.60;41.60
19258;DHT22;9763;48.780;9.212;2023-05-21T17:50:48;27.60;41.60
19258;DHT22;9763;48.780;9.212;2023-05-21T17:54:12;27.50;41.80
19258;DHT22;9763;48.780;9.212;2023-05-21T17:57:35;27.50;42.00
19258;DHT22;9763;48.780;9.212;2023-05-21T18:01:01;27.40;42.10
19258;DHT22;9763;48.780;9.212;2023-05-21T18:04:24;27.30;42.30
19258;DHT22;9763;48.780;9.212;2023-05-21T18:07:48;27.30;42.40
19258;DHT22;9763;48.780;9.212;2023-05-21T18:11:12;27.20;42.50
19258;DHT22;9763;48.780;9.212;2023-05-21T18:14:36;27.10;42.50
19258;DHT22;9763;48.780;9.212;2023-05-21T18:18:02;27.00;42.70
19258;DHT22;9763;48.780;9.212;2023-05-21T18:21:26;26.90;43.00
19258;DHT22;9763;48.780;9.212;2023-05-21T18:24:49;26.90;43.10
19258;DHT22;9763;48.780;9.212;2023-05-21T18:28:13;26.70;43.10
19258;DHT22;9763;48.780;9.212;2023-05-21T18:31:37;26.60;43.20
19258;DHT22;9763;48.780;9.212;2023-05-21T18:35:03;26.40;43.30
19258;DHT22;9763;48.780;9.212;2023-05-21T18:38:28;26.30;43.70
19258;DHT22;9763;48.780;9.212;2023-05-21T18:41:52;26.20;43.80
19258;DHT22;9763;48.780;9.212;2023-05-21T18:45:34;26.10;44.00
19258;DHT22;9763;48.780;9.212;2023-05-21T18:48:58;25.90;44.10
19258;DHT22;9763;48.780;9.212;2023-05-21T18:52:24;25.80;44.40
19258;DHT22;9763;48.780;9.212;2023-05-21T18:55:48;25.70;44.60
19258;DHT22;9763;48.780;9.212;2023-05-21T18:59:12;25.70;44.80
19258;DHT22;9763;48.780;9.212;2023-05-21T19:02:36;25.60;45.50
19258;DHT22;9763;48.780;9.212;2023-05-21T19:06:00;25.50;44.90
19258;DHT22;9763;48.780;9.212;2023-05-21T19:09:26;25.40;45.10
19258;DHT22;9763;48.780;9.212;2023-05-21T19:12:50;25.30;45.40
19258;DHT22;9763;48.780;9.212;2023-05-21T19:16:15;25.20;45.30
19258;DHT22;9763;48.780;9.212;2023-05-21T19:19:39;25.10;45.50
19258;DHT22;9763;48.780;9.212;2023-05-21T19:23:03;25.00;45.70
19258;DHT22;9763;48.780;9.212;2023-05-21T19:26:28;25.00;45.90
19258;DHT22;9763;48.780;9.212;2023-05-21T19:29:52;23.60;45.00
19258;DHT22;9763;48.780;9.212;2023-05-21T19:33:16;24.80;46.10
19258;DHT22;9763;48.780;9.212;2023-05-21T19:36:41;24.80;46.20
19258;DHT22;9763;48.780;9.212;2023-05-21T19:40:15;24.70;45.90
19258;DHT22;9763;48.780;9.212;2023-05-21T19:43:40;24.70;46.50
19258;DHT22;9763;48.780;9.212;2023-05-21T19:47:05;24.50;46.30
19258;DHT22;9763;48.780;9.212;2023-05-21T19:50:29;24.50;46.80
19258;DHT22;9763;48.780;9.212;2023-05-21T19:53:53;24.50;47.00
19258;DHT22;9763;48.780;9.212;2023-05-21T19:57:17;24.40;47.00
19258;DHT22;9763;48.780;9.212;2023-05-21T20:00:43;24.40;47.00
19258;DHT22;9763;48.780;9.212;2023-05-21T20:04:09;24.30;47.30
19258;DHT22;9763;48.780;9.212;2023-05-21T20:07:34;24.30;47.40
19258;DHT22;9763;48.780;9.212;2023-05-21T20:10:58;24.20;47.30
19258;DHT22;9763;48.780;9.212;2023-05-21T20:14:22;24.20;47.50
19258;DHT22;9763;48.780;9.212;2023-05-21T20:17:47;24.10;47.60
19258;DHT22;9763;48.780;9.212;2023-05-21T20:21:12;24.10;47.80
19258;DHT22;9763;48.780;9.212;2023-05-21T20:24:36;24.00;47.80
19258;DHT22;9763;48.780;9.212;2023-05-21T20:28:00;23.90;47.80
19258;DHT22;9763;48.780;9.212;2023-05-21T20:31:25;23.90;48.00
19258;DHT22;9763;48.780;9.212;2023-05-21T20:34:51;23.80;48.00
19258;DHT22;9763;48.780;9.212;2023-05-21T20:38:25;23.70;48.20
19258;DHT22;9763;48.780;9.212;2023-05-21T20:41:49;23.60;48.20
19258;DHT22;9763;48.780;9.212;2023-05-21T20:45:14;23.60;48.40
19258;DHT22;9763;48.780;9.212;2023-05-21T20:48:39;23.50;48.40
19258;DHT22;9763;48.780;9.212;2023-05-21T20:52:04;23.50;48.60
19258;DHT22;9763;48.780;9.212;2023-05-21T20:55:29;23.40;48.80
19258;DHT22;9763;48.780;9.212;2023-05-21T20:58:55;23.40;48.80
19258;DHT22;9763;48.780;9.212;2023-05-21T21:02:19;23.30;48.90
19258;DHT22;9763;48.780;9.212;2023-05-21T21:05:44;23.40;49.10
19258;DHT22;9763;48.780;9.212;2023-05-21T21:09:09;23.20;49.00
19258;DHT22;9763;48.780;9.212;2023-05-21T21:12:32;23.20;49.00
19258;DHT22;9763;48.780;9.212;2023-05-21T21:15:56;23.10;49.20
19258;DHT22;9763;48.780;9.212;2023-05-21T21:19:20;23.30;49.50
19258;DHT22;9763;48.780;9.212;2023-05-21T21:22:43;23.00;49.40
19258;DHT22;9763;48.780;9.212;2023-05-21T21:26:09;23.00;49.40
19258;DHT22;9763;48.780;9.212;2023-05-21T21:29:32;23.20;49.80
19258;DHT22;9763;48.780;9.212;2023-05-21T21:32:56;22.80;49.60
19258;DHT22;9763;48.780;9.212;2023-05-21T21:36:20;22.80;50.00
19258;DHT22;9763;48.780;9.212;2023-05-21T21:39:43;22.70;50.00
19258;DHT22;9763;48.780;9.212;2023-05-21T21:43:08;22.60;50.20
19258;DHT22;9763;48.780;9.212;2023-05-21T21:46:32;22.50;50.40
19258;DHT22;9763;48.780;9.212;2023-05-21T21:49:56;22.40;50.30
19258;DHT22;9763;48.780;9.212;2023-05-21T21:53:20;22.40;50.50
19258;DHT22;9763;48.780;9.212;2023-05-21T21:56:44;22.30;50.70
19258;DHT22;9763;48.780;9.212;2023-05-21T22:00:09;22.20;50.60